createdAt,value
2019-05-29T00:02:24.938Z,5.13
2019-05-29T00:04:57.802Z,4.50
2019-05-29T00:07:33.665Z,4.75
2019-05-29T00:10:08.957Z,5.43
2019-05-29T00:12:42.579Z,5.87
2019-05-29T00:15:19.152Z,7.73
2019-05-29T00:17:51.794Z,5.43
2019-05-29T00:20:24.411Z,5.10
2019-05-29T00:22:56.955Z,2.93
2019-05-29T00:25:29.937Z,6.77
2019-05-29T00:28:03.140Z,4.90
2019-05-29T00:30:37.010Z,5.90
2019-05-29T00:33:10.150Z,3.47
2019-05-29T00:35:44.108Z,4.17
2019-05-29T00:38:18.633Z,6.50
2019-05-29T00:40:51.921Z,5.67
2019-05-29T00:43:24.528Z,4.13
2019-05-29T00:45:59.738Z,4.83
2019-05-29T00:48:32.842Z,3.80
2019-05-29T00:51:06.409Z,4.27
2019-05-29T00:53:40.697Z,3.77
2019-05-29T00:56:14.663Z,4.50
2019-05-29T00:58:47.214Z,5.93
2019-05-29T01:01:22.642Z,5.47
2019-05-29T01:03:58.646Z,5.97
2019-05-29T01:06:32.478Z,4.07
2019-05-29T01:09:07.502Z,6.10
2019-05-29T01:11:40.565Z,7.13
2019-05-29T01:14:15.152Z,5.80
2019-05-29T01:16:47.873Z,5.03
2019-05-29T01:19:24.482Z,7.60
2019-05-29T01:22:00.718Z,5.37
2019-05-29T01:24:35.124Z,6.07
2019-05-29T01:27:07.894Z,5.70
2019-05-29T01:29:40.530Z,8.07
2019-05-29T01:32:15.241Z,11.27
2019-05-29T01:34:50.047Z,4.40
2019-05-29T01:37:22.964Z,4.87
2019-05-29T01:39:55.554Z,4.45
2019-05-29T01:42:28.131Z,8.80
2019-05-29T01:45:07.548Z,5.27
2019-05-29T01:47:41.307Z,6.87
2019-05-29T01:50:15.589Z,5.68
2019-05-29T01:52:48.330Z,4.93
2019-05-29T01:55:21.737Z,5.03
2019-05-29T01:57:54.406Z,6.30
2019-05-29T02:00:28.577Z,7.03
2019-05-29T02:03:01.375Z,5.10
2019-05-29T02:05:33.952Z,9.10
2019-05-29T02:08:06.451Z,5.93
2019-05-29T02:10:39.109Z,6.87
2019-05-29T02:13:11.854Z,6.37
2019-05-29T02:15:45.250Z,6.23
2019-05-29T02:18:18.815Z,6.77
2019-05-29T02:20:51.583Z,5.00
2019-05-29T02:23:24.285Z,7.73
2019-05-29T02:25:58.023Z,7.30
2019-05-29T02:28:33.120Z,6.22
2019-05-29T02:31:05.887Z,8.20
2019-05-29T02:33:38.586Z,9.60
2019-05-29T02:36:11.178Z,8.97
2019-05-29T02:38:45.575Z,7.27
2019-05-29T02:41:19.669Z,11.00
2019-05-29T02:43:54.055Z,11.57
2019-05-29T02:46:28.560Z,12.37
2019-05-29T02:49:03.060Z,9.83
2019-05-29T02:51:38.644Z,9.17
2019-05-29T02:54:11.418Z,10.27
2019-05-29T02:56:44.253Z,11.77
2019-05-29T02:59:17.261Z,10.73
2019-05-29T03:01:50.008Z,11.00
2019-05-29T03:04:24.037Z,8.80
2019-05-29T03:06:57.401Z,16.00
2019-05-29T03:09:30.787Z,12.93
2019-05-29T03:12:04.396Z,12.47
2019-05-29T03:14:38.823Z,15.43
2019-05-29T03:17:11.656Z,15.60
2019-05-29T03:19:44.289Z,17.70
2019-05-29T03:22:16.864Z,14.83
2019-05-29T03:24:49.385Z,14.63
2019-05-29T03:27:22.031Z,13.43
2019-05-29T03:29:54.623Z,16.73
2019-05-29T03:32:30.645Z,14.30
2019-05-29T03:35:07.412Z,19.10
2019-05-29T03:37:40.635Z,18.73
2019-05-29T03:40:13.460Z,13.83
2019-05-29T03:42:46.122Z,13.23
2019-05-29T03:45:19.706Z,15.07
2019-05-29T03:47:52.459Z,14.40
2019-05-29T03:50:26.611Z,17.40
2019-05-29T03:53:01.297Z,15.43
2019-05-29T03:55:35.787Z,13.40
2019-05-29T03:58:08.651Z,14.27
2019-05-29T04:00:46.197Z,16.00
2019-05-29T04:03:20.935Z,17.80
2019-05-29T04:05:54.624Z,16.63
2019-05-29T04:08:29.281Z,15.57
2019-05-29T04:11:03.551Z,18.10
2019-05-29T04:13:38.899Z,18.08
2019-05-29T04:16:14.316Z,14.70
2019-05-29T04:18:50.066Z,17.40
2019-05-29T04:21:24.905Z,18.20
2019-05-29T04:24:01.550Z,16.17
2019-05-29T04:26:40.542Z,16.50
2019-05-29T04:29:13.890Z,15.33
2019-05-29T04:31:46.842Z,19.03
2019-05-29T04:34:19.610Z,16.73
2019-05-29T04:36:53.211Z,22.70
2019-05-29T04:39:25.860Z,17.13
2019-05-29T04:41:58.624Z,17.80
2019-05-29T04:44:55.815Z,15.75
2019-05-29T04:47:37.434Z,13.75
2019-05-29T04:50:13.019Z,15.63
2019-05-29T04:52:47.996Z,13.43
2019-05-29T04:55:21.789Z,15.40
2019-05-29T04:57:54.588Z,13.40
2019-05-29T05:00:29.085Z,13.93
2019-05-29T05:03:01.782Z,12.17
2019-05-29T05:05:37.991Z,11.73
2019-05-29T05:08:12.507Z,10.97
2019-05-29T05:10:45.870Z,13.07
2019-05-29T05:13:18.842Z,11.17
2019-05-29T05:15:54.976Z,9.93
2019-05-29T05:18:27.683Z,9.03
2019-05-29T05:21:02.449Z,9.53
2019-05-29T05:23:36.147Z,8.05
2019-05-29T05:26:08.832Z,8.53
2019-05-29T05:28:44.677Z,6.53
2019-05-29T05:31:19.461Z,6.63
2019-05-29T05:33:53.536Z,7.50
2019-05-29T05:36:26.255Z,5.83
2019-05-29T05:38:58.945Z,7.70
2019-05-29T05:41:32.767Z,7.70
2019-05-29T05:44:05.851Z,5.47
2019-05-29T05:46:39.204Z,6.93
2019-05-29T05:49:11.995Z,7.30
2019-05-29T05:51:44.812Z,6.33
2019-05-29T05:54:19.272Z,7.53
2019-05-29T05:56:53.779Z,8.30
2019-05-29T05:59:26.562Z,3.67
2019-05-29T06:01:59.155Z,6.87
2019-05-29T06:04:31.947Z,7.50
2019-05-29T06:07:06.859Z,4.03
2019-05-29T06:09:40.429Z,7.18
2019-05-29T06:12:13.175Z,6.18
2019-05-29T06:14:45.706Z,4.50
2019-05-29T06:17:21.757Z,4.33
2019-05-29T06:19:54.675Z,3.27
2019-05-29T06:22:28.280Z,4.07
2019-05-29T06:25:01.863Z,4.13
2019-05-29T06:27:41.345Z,4.27
2019-05-29T06:30:18.983Z,4.60
2019-05-29T06:32:58.485Z,3.03
2019-05-29T06:35:34.511Z,2.80
2019-05-29T06:38:12.461Z,4.80
2019-05-29T06:40:46.910Z,2.73
2019-05-29T06:43:24.114Z,2.17
2019-05-29T06:45:57.527Z,4.05
2019-05-29T06:48:46.137Z,3.13
2019-05-29T06:51:27.919Z,4.30
2019-05-29T06:54:03.660Z,2.33
2019-05-29T06:56:37.758Z,3.90
2019-05-29T06:59:10.899Z,2.30
2019-05-29T07:01:44.071Z,4.40
2019-05-29T07:04:18.315Z,4.50
2019-05-29T07:06:52.059Z,5.53
2019-05-29T07:09:25.628Z,4.10
2019-05-29T07:11:58.279Z,1.90
2019-05-29T07:14:30.994Z,3.27
2019-05-29T07:17:04.470Z,3.30
2019-05-29T07:19:49.088Z,2.73
2019-05-29T07:22:32.696Z,1.90
2019-05-29T07:25:14.221Z,3.20
2019-05-29T07:27:47.112Z,1.53
2019-05-29T07:30:22.285Z,2.65
2019-05-29T07:32:58.807Z,5.00
2019-05-29T07:35:31.900Z,6.17
2019-05-29T07:38:04.540Z,2.37
2019-05-29T07:40:38.386Z,2.08
2019-05-29T07:43:12.240Z,5.80
2019-05-29T07:45:46.137Z,1.83
2019-05-29T07:48:19.648Z,1.77
2019-05-29T07:51:06.260Z,0.60
2019-05-29T07:53:40.162Z,0.83
2019-05-29T07:56:22.668Z,1.23
2019-05-29T07:59:02.408Z,1.00
2019-05-29T08:01:36.396Z,1.20
2019-05-29T08:04:11.432Z,1.40
2019-05-29T08:06:52.337Z,3.97
2019-05-29T08:09:29.515Z,3.63
2019-05-29T08:12:02.322Z,1.40
2019-05-29T08:14:34.852Z,2.70
2019-05-29T08:17:09.160Z,1.07
2019-05-29T08:19:59.248Z,2.67
2019-05-29T08:22:42.286Z,2.20
2019-05-29T08:25:20.548Z,1.23
2019-05-29T08:28:03.164Z,1.10
2019-05-29T08:30:41.565Z,1.92
2019-05-29T08:33:18.172Z,2.27
2019-05-29T08:35:59.310Z,2.27
2019-05-29T08:38:37.625Z,1.08
2019-05-29T08:41:10.303Z,1.33
2019-05-29T08:43:46.963Z,2.37
2019-05-29T08:46:20.653Z,1.83
2019-05-29T08:48:54.715Z,1.90
2019-05-29T08:51:33.857Z,2.10
2019-05-29T08:54:23.543Z,1.30
2019-05-29T08:57:08.123Z,1.47
2019-05-29T08:59:46.407Z,2.60
2019-05-29T09:02:23.544Z,1.33
2019-05-29T09:04:57.817Z,0.97
2019-05-29T09:07:33.651Z,1.27
2019-05-29T09:10:08.455Z,1.45
2019-05-29T09:12:47.090Z,1.37
2019-05-29T09:15:29.165Z,1.23
2019-05-29T09:18:12.970Z,2.00
2019-05-29T09:21:01.800Z,1.52
2019-05-29T09:23:40.333Z,1.27
2019-05-29T09:26:19.836Z,3.07
2019-05-29T09:28:58.927Z,1.80
2019-05-29T09:31:37.460Z,1.50
2019-05-29T09:34:10.558Z,2.37
2019-05-29T09:36:43.746Z,1.60
2019-05-29T09:39:24.862Z,3.10
2019-05-29T09:42:00.213Z,0.57
2019-05-29T09:44:38.654Z,0.67
2019-05-29T09:47:13.141Z,0.60
2019-05-29T09:49:49.186Z,1.10
2019-05-29T09:52:25.078Z,1.13
2019-05-29T09:55:00.449Z,1.87
2019-05-29T09:57:34.607Z,1.37
2019-05-29T10:00:10.034Z,3.70
2019-05-29T10:02:45.729Z,0.83
2019-05-29T10:05:20.556Z,1.03
2019-05-29T10:07:56.302Z,1.65
2019-05-29T10:10:32.674Z,1.25
2019-05-29T10:13:06.182Z,1.83
2019-05-29T10:15:39.359Z,1.50
2019-05-29T10:18:31.465Z,1.23
2019-05-29T10:21:19.757Z,1.50
2019-05-29T10:23:56.229Z,2.43
2019-05-29T10:26:33.131Z,0.60
2019-05-29T10:29:10.022Z,1.47
2019-05-29T10:31:49.818Z,0.80
2019-05-29T10:34:34.034Z,1.13
2019-05-29T10:37:18.117Z,1.77
2019-05-29T10:39:53.635Z,1.27
2019-05-29T10:42:34.932Z,0.93
2019-05-29T10:45:18.529Z,2.17
2019-05-29T10:47:55.617Z,2.00
2019-05-29T10:50:38.760Z,2.83
2019-05-29T10:53:24.728Z,1.40
2019-05-29T10:55:58.455Z,1.10
2019-05-29T10:58:47.941Z,2.97
2019-05-29T11:01:26.428Z,0.90
2019-05-29T11:04:00.472Z,1.20
2019-05-29T11:06:34.103Z,0.87
2019-05-29T11:09:18.525Z,1.13
2019-05-29T11:11:57.734Z,1.03
2019-05-29T11:14:35.264Z,1.67
2019-05-29T11:17:10.983Z,0.90
2019-05-29T11:19:44.332Z,1.10
2019-05-29T11:22:26.235Z,1.23
2019-05-29T11:25:21.074Z,1.27
2019-05-29T11:27:56.770Z,1.50
2019-05-29T11:30:33.925Z,1.40
2019-05-29T11:33:10.718Z,1.53
2019-05-29T11:35:57.331Z,1.47
2019-05-29T11:38:40.024Z,1.70
2019-05-29T11:41:25.775Z,2.87
2019-05-29T11:44:07.197Z,1.48
2019-05-29T11:46:40.833Z,0.77
2019-05-29T11:49:14.646Z,0.77
2019-05-29T11:52:16.966Z,1.47
2019-05-29T11:54:59.962Z,0.60
2019-05-29T11:57:48.038Z,1.27
2019-05-29T12:00:21.527Z,0.60
2019-05-29T12:02:57.356Z,0.60
2019-05-29T12:05:33.458Z,0.83
2019-05-29T12:08:06.166Z,1.60
2019-05-29T12:10:39.026Z,1.63
2019-05-29T12:13:11.798Z,0.50
2019-05-29T12:15:45.388Z,1.07
2019-05-29T12:18:23.953Z,1.10
2019-05-29T12:20:58.543Z,2.17
2019-05-29T12:23:32.919Z,1.10
2019-05-29T12:26:23.362Z,0.60
2019-05-29T12:29:04.535Z,1.03
2019-05-29T12:31:43.717Z,1.37
2019-05-29T12:34:19.438Z,0.93
2019-05-29T12:36:55.426Z,1.00
2019-05-29T12:39:28.585Z,0.67
2019-05-29T12:42:01.786Z,0.73
2019-05-29T12:44:35.529Z,0.90
2019-05-29T12:47:09.532Z,1.12
2019-05-29T12:49:42.232Z,1.53
2019-05-29T12:52:14.818Z,0.80
2019-05-29T12:54:48.704Z,2.23
2019-05-29T12:57:23.624Z,1.10
2019-05-29T13:00:00.311Z,1.90
2019-05-29T13:02:35.321Z,1.17
2019-05-29T13:05:19.302Z,1.00
2019-05-29T13:07:54.708Z,1.33
2019-05-29T13:10:31.023Z,1.57
2019-05-29T13:13:12.586Z,0.62
2019-05-29T13:15:49.143Z,1.63
2019-05-29T13:18:21.756Z,1.13
2019-05-29T13:20:57.261Z,2.90
2019-05-29T13:23:44.621Z,1.20
2019-05-29T13:26:19.374Z,1.30
2019-05-29T13:28:52.969Z,0.73
2019-05-29T13:31:27.279Z,1.40
2019-05-29T13:34:02.081Z,0.33
2019-05-29T13:36:35.636Z,0.97
2019-05-29T13:39:10.246Z,1.17
2019-05-29T13:41:42.989Z,0.90
2019-05-29T13:44:15.854Z,1.63
2019-05-29T13:46:48.623Z,2.63
2019-05-29T13:49:21.460Z,0.80
2019-05-29T13:51:54.311Z,1.53
2019-05-29T13:54:28.612Z,1.23
2019-05-29T13:57:02.505Z,2.03
2019-05-29T13:59:36.054Z,0.87
2019-05-29T14:02:10.390Z,1.23
2019-05-29T14:04:44.129Z,1.77
2019-05-29T14:07:16.906Z,2.43
2019-05-29T14:09:51.297Z,1.00
2019-05-29T14:12:25.834Z,0.75
2019-05-29T14:14:59.938Z,1.80
2019-05-29T14:17:34.903Z,1.40
2019-05-29T14:20:09.176Z,0.87
2019-05-29T14:22:42.917Z,2.13
2019-05-29T14:25:16.519Z,0.40
2019-05-29T14:27:50.814Z,2.90
2019-05-29T14:30:26.694Z,1.60
2019-05-29T14:32:59.356Z,0.67
2019-05-29T14:35:34.258Z,0.60
2019-05-29T14:38:11.637Z,1.60
2019-05-29T14:40:47.433Z,1.47
2019-05-29T14:43:22.054Z,1.23
2019-05-29T14:46:03.924Z,1.10
2019-05-29T14:48:41.276Z,1.60
2019-05-29T14:51:25.638Z,4.10
2019-05-29T14:53:59.207Z,1.60
2019-05-29T14:56:32.232Z,1.53
2019-05-29T14:59:05.659Z,1.63
2019-05-29T15:01:41.580Z,2.67
2019-05-29T15:04:15.227Z,1.40
2019-05-29T15:06:48.609Z,0.80
2019-05-29T15:09:21.351Z,1.27
2019-05-29T15:11:54.052Z,1.30
2019-05-29T15:14:27.433Z,1.30
2019-05-29T15:17:02.137Z,1.00
2019-05-29T15:19:40.278Z,2.30
2019-05-29T15:22:14.503Z,2.17
2019-05-29T15:25:04.252Z,3.00
2019-05-29T15:27:46.345Z,2.10
2019-05-29T15:30:23.636Z,1.60
2019-05-29T15:33:01.812Z,3.10
2019-05-29T15:35:42.862Z,2.97
2019-05-29T15:38:38.229Z,2.00
2019-05-29T15:41:16.816Z,5.23
2019-05-29T15:44:13.286Z,1.40
2019-05-29T15:46:49.167Z,1.93
2019-05-29T15:49:23.286Z,1.20
2019-05-29T15:52:01.853Z,2.00
2019-05-29T15:54:43.232Z,1.30
2019-05-29T15:57:19.956Z,3.13
2019-05-29T15:59:53.837Z,1.77
2019-05-29T16:02:32.164Z,1.33
2019-05-29T16:05:06.942Z,1.93
2019-05-29T16:07:43.502Z,1.53
2019-05-29T16:10:21.533Z,1.65
2019-05-29T16:13:17.138Z,1.30
2019-05-29T16:15:51.370Z,3.33
2019-05-29T16:18:29.635Z,4.43
2019-05-29T16:21:04.626Z,1.83
2019-05-29T16:23:40.303Z,3.33
2019-05-29T16:26:13.352Z,1.10
2019-05-29T16:28:47.705Z,1.93
2019-05-29T16:31:23.049Z,2.03
2019-05-29T16:33:59.743Z,2.23
2019-05-29T16:36:40.297Z,3.20
2019-05-29T16:39:15.819Z,4.23
2019-05-29T16:41:55.032Z,2.67
2019-05-29T16:44:30.678Z,2.13
2019-05-29T16:47:07.465Z,1.13
2019-05-29T16:49:42.306Z,0.90
2019-05-29T16:52:24.295Z,2.10
2019-05-29T16:55:00.541Z,1.20
2019-05-29T16:57:34.235Z,3.37
2019-05-29T17:00:10.041Z,1.07
2019-05-29T17:02:52.608Z,0.87
2019-05-29T17:05:28.230Z,0.70
2019-05-29T17:08:02.767Z,1.03
2019-05-29T17:10:38.184Z,1.30
2019-05-29T17:13:16.619Z,1.20
2019-05-29T17:15:53.294Z,1.53
2019-05-29T17:18:26.992Z,1.53
2019-05-29T17:21:00.091Z,1.90
2019-05-29T17:23:37.476Z,2.00
2019-05-29T17:26:14.549Z,1.13
2019-05-29T17:28:50.288Z,1.92
2019-05-29T17:31:32.734Z,2.00
2019-05-29T17:34:13.306Z,5.93
2019-05-29T17:36:48.331Z,1.30
2019-05-29T17:39:25.135Z,1.40
2019-05-29T17:42:00.106Z,3.80
2019-05-29T17:44:35.332Z,5.27
2019-05-29T17:47:12.779Z,3.13
2019-05-29T17:49:53.487Z,1.47
2019-05-29T17:52:31.471Z,1.00
2019-05-29T17:55:23.286Z,3.37
2019-05-29T17:58:04.743Z,2.90
2019-05-29T18:00:37.471Z,5.93
2019-05-29T18:03:10.846Z,1.23
2019-05-29T18:05:46.277Z,2.07
2019-05-29T18:08:20.910Z,2.20
2019-05-29T18:10:53.761Z,3.27
2019-05-29T18:13:27.415Z,0.97
2019-05-29T18:16:02.209Z,1.67
2019-05-29T18:18:35.384Z,1.40
2019-05-29T18:21:08.165Z,1.73
2019-05-29T18:23:41.171Z,1.87
2019-05-29T18:26:15.002Z,2.10
2019-05-29T18:28:49.827Z,2.30
2019-05-29T18:31:24.389Z,2.93
2019-05-29T18:33:57.435Z,1.27
2019-05-29T18:36:31.380Z,2.53
2019-05-29T18:39:08.579Z,2.60
2019-05-29T18:41:41.244Z,2.10
2019-05-29T18:44:14.963Z,2.85
2019-05-29T18:46:47.714Z,2.73
2019-05-29T18:49:20.474Z,2.87
2019-05-29T18:51:53.027Z,3.58
2019-05-29T18:54:26.288Z,1.20
2019-05-29T18:57:14.594Z,3.33
2019-05-29T18:59:52.358Z,3.73
2019-05-29T19:02:25.383Z,2.73
2019-05-29T19:05:01.029Z,1.40
2019-05-29T19:07:35.344Z,4.03
2019-05-29T19:10:10.873Z,2.70
2019-05-29T19:12:50.831Z,3.10
2019-05-29T19:15:26.060Z,3.97
2019-05-29T19:18:01.309Z,4.17
2019-05-29T19:20:37.060Z,1.27
2019-05-29T19:23:09.787Z,3.20
2019-05-29T19:25:43.312Z,3.20
2019-05-29T19:28:17.179Z,1.37
2019-05-29T19:30:51.048Z,1.77
2019-05-29T19:33:27.392Z,2.53
2019-05-29T19:36:00.850Z,2.70
2019-05-29T19:38:34.213Z,1.37
2019-05-29T19:41:17.532Z,1.73
2019-05-29T19:43:51.680Z,2.60
2019-05-29T19:46:24.547Z,1.60
2019-05-29T19:49:05.403Z,1.50
2019-05-29T19:51:40.995Z,2.78
2019-05-29T19:54:18.796Z,1.33
2019-05-29T19:56:52.579Z,4.90
2019-05-29T19:59:26.192Z,9.03
2019-05-29T20:02:00.318Z,5.83
2019-05-29T20:04:42.878Z,4.50
2019-05-29T20:07:16.535Z,4.93
2019-05-29T20:09:50.071Z,4.37
2019-05-29T20:12:27.550Z,5.80
2019-05-29T20:15:07.839Z,4.17
2019-05-29T20:17:41.918Z,1.97
2019-05-29T20:20:15.184Z,3.93
2019-05-29T20:22:51.393Z,1.87
2019-05-29T20:25:27.045Z,3.33
2019-05-29T20:28:07.556Z,3.07
2019-05-29T20:30:40.457Z,1.60
2019-05-29T20:33:15.305Z,3.03
2019-05-29T20:35:53.554Z,4.33
2019-05-29T20:38:30.986Z,2.10
2019-05-29T20:41:05.450Z,2.27
2019-05-29T20:43:39.797Z,5.27
2019-05-29T20:46:16.837Z,2.43
2019-05-29T20:48:50.879Z,3.33
2019-05-29T20:51:24.284Z,4.70
2019-05-29T20:53:58.052Z,3.87
2019-05-29T20:56:31.657Z,4.10
2019-05-29T20:59:07.125Z,4.27
2019-05-29T21:02:26.569Z,4.37
2019-05-29T21:05:02.212Z,3.97
2019-05-29T21:07:54.177Z,4.43
2019-05-29T21:10:27.631Z,3.37
2019-05-29T21:13:01.286Z,3.43
2019-05-29T21:15:35.573Z,3.07
2019-05-29T21:18:08.985Z,3.57
2019-05-29T21:20:45.575Z,3.73
2019-05-29T21:23:18.235Z,3.83
2019-05-29T21:25:52.118Z,3.07
2019-05-29T21:28:39.868Z,3.53
2019-05-29T21:31:21.216Z,2.40
2019-05-29T21:33:56.013Z,2.85
2019-05-29T21:36:29.583Z,3.23
2019-05-29T21:39:08.782Z,3.33
2019-05-29T21:41:42.565Z,3.37
2019-05-29T21:44:17.618Z,5.80
2019-05-29T21:46:57.593Z,4.37
2019-05-29T21:49:32.398Z,3.17
2019-05-29T21:52:06.586Z,2.97
2019-05-29T21:54:39.393Z,3.40
2019-05-29T21:57:13.003Z,4.40
2019-05-29T21:59:48.091Z,3.97
2019-05-29T22:02:21.847Z,2.40
2019-05-29T22:04:54.488Z,2.93
2019-05-29T22:07:27.905Z,3.70
2019-05-29T22:10:01.035Z,3.23
2019-05-29T22:12:35.956Z,4.55
2019-05-29T22:15:23.574Z,6.30
2019-05-29T22:17:57.538Z,3.83
2019-05-29T22:20:32.335Z,2.63
2019-05-29T22:23:14.303Z,4.37
2019-05-29T22:25:47.055Z,5.43
2019-05-29T22:28:21.457Z,4.90
2019-05-29T22:30:57.353Z,3.57
2019-05-29T22:33:34.788Z,4.37
2019-05-29T22:36:11.505Z,3.33
2019-05-29T22:38:46.701Z,4.13
2019-05-29T22:41:25.214Z,2.60
2019-05-29T22:44:02.500Z,7.13
2019-05-29T22:46:35.507Z,4.63
2019-05-29T22:49:09.273Z,4.20
2019-05-29T22:51:44.307Z,4.15
2019-05-29T22:54:17.012Z,4.50
2019-05-29T22:56:49.576Z,3.03
2019-05-29T22:59:31.932Z,3.53
2019-05-29T23:02:07.866Z,4.90
2019-05-29T23:04:44.042Z,3.37
2019-05-29T23:07:21.463Z,3.53
2019-05-29T23:12:53.012Z,4.07
2019-05-29T23:15:28.375Z,3.17
2019-05-29T23:18:00.992Z,3.13
2019-05-29T23:20:36.725Z,3.70
2019-05-29T23:23:09.382Z,3.00
2019-05-29T23:25:40.978Z,3.03
2019-05-29T23:28:13.390Z,3.37
2019-05-29T23:30:45.258Z,4.80
2019-05-29T23:33:18.642Z,3.17
2019-05-29T23:35:51.391Z,2.00
2019-05-29T23:38:23.554Z,2.23
2019-05-29T23:40:57.406Z,2.57
2019-05-29T23:43:29.274Z,1.57
2019-05-29T23:46:02.481Z,4.87
2019-05-29T23:48:37.069Z,5.47
2019-05-29T23:51:08.930Z,4.97
2019-05-29T23:53:53.779Z,2.37
2019-05-29T23:56:26.245Z,4.47
2019-05-29T23:58:57.912Z,5.57
